Time;durP1;ratioP1;P1;durP2;ratioP2;P2;SDS_P1;SDS_P2;PMS_P1;PMS_P2;Temp;Humidity;BMP_temperature;BMP_pressure;BME280_temperature;BME280_humidity;BME280_pressure;Samples;Min_cycle;Max_cycle;Signal;HPM_P1;HPM_P2
2022/10/02 00:02:22;;;;;;;0.27;0.27;;;11.50;99.90;;;;;;5035071;28;20194;-79
2022/10/02 00:05:10;;;;;;;0.10;0.10;;;11.50;99.90;;;;;;5037401;28;20202;-79
2022/10/02 00:07:39;;;;;;;0.17;0.17;;;11.60;99.90;;;;;;5035649;28;20270;-80
2022/10/02 00:10:43;;;;;;;0.20;0.20;;;11.70;99.90;;;;;;5035512;28;20182;-79
2022/10/02 00:13:18;;;;;;;0.10;0.10;;;11.70;99.90;;;;;;5039849;28;20182;-79
2022/10/02 00:15:44;;;;;;;1.20;1.10;;;11.70;99.90;;;;;;5037603;28;20186;-79
2022/10/02 00:18:13;;;;;;;0.23;0.23;;;11.70;99.90;;;;;;5039188;28;21191;-79
2022/10/02 00:20:54;;;;;;;0.10;0.10;;;11.70;99.90;;;;;;5033452;28;20191;-79
2022/10/02 00:23:40;;;;;;;0.17;0.17;;;11.80;99.90;;;;;;5041165;28;20192;-79
2022/10/02 00:26:19;;;;;;;0.20;0.20;;;12.00;99.90;;;;;;5036558;28;20209;-79
2022/10/02 00:29:13;;;;;;;0.40;0.37;;;12.10;99.90;;;;;;5037883;28;20189;-79
2022/10/02 00:31:55;;;;;;;0.20;0.20;;;12.20;99.90;;;;;;5037208;28;20182;-79
2022/10/02 00:34:29;;;;;;;0.10;0.10;;;12.20;99.90;;;;;;5038213;28;20182;-79
2022/10/02 00:37:30;;;;;;;0.27;0.13;;;12.30;99.90;;;;;;5033589;28;20211;-79
2022/10/02 00:40:12;;;;;;;0.20;0.20;;;12.40;99.90;;;;;;5001171;28;20212;-79
2022/10/02 00:42:55;;;;;;;0.10;0.10;;;12.40;99.90;;;;;;5037200;28;20190;-80
2022/10/02 00:45:31;;;;;;;0.20;0.20;;;12.50;99.90;;;;;;5032674;28;20202;-79
2022/10/02 00:48:15;;;;;;;0.20;0.20;;;12.60;99.90;;;;;;5035788;28;20206;-80
2022/10/02 00:51:06;;;;;;;2.17;0.60;;;12.60;99.90;;;;;;5036545;28;20193;-79
2022/10/02 00:53:49;;;;;;;0.30;0.30;;;12.60;99.90;;;;;;5038609;28;20189;-79
2022/10/02 00:56:51;;;;;;;0.30;0.30;;;12.50;99.90;;;;;;5030793;28;20194;-80
2022/10/02 00:59:43;;;;;;;0.10;0.10;;;12.60;99.90;;;;;;5031673;28;20193;-80
2022/10/02 01:02:46;;;;;;;0.10;0.10;;;12.50;99.90;;;;;;5034554;28;20190;-79
2022/10/02 01:05:12;;;;;;;0.40;0.40;;;12.60;99.90;;;;;;5035434;28;20213;-79
2022/10/02 01:07:43;;;;;;;0.20;0.20;;;12.70;99.90;;;;;;5036111;28;20618;-79
2022/10/02 01:10:12;;;;;;;0.20;0.20;;;12.80;99.90;;;;;;5031509;28;20269;-79
2022/10/02 01:12:38;;;;;;;5.73;0.30;;;12.80;99.90;;;;;;5035850;28;20639;-80
2022/10/02 01:15:15;;;;;;;0.30;0.17;;;12.80;99.90;;;;;;5034255;28;20201;-79
2022/10/02 01:17:42;;;;;;;0.57;0.30;;;12.80;99.90;;;;;;5032594;28;20222;-80
2022/10/02 01:20:14;;;;;;;0.10;0.10;;;12.80;99.90;;;;;;5032155;28;20190;-79
2022/10/02 01:23:02;;;;;;;0.33;0.23;;;12.80;99.90;;;;;;5033467;28;20199;-79
2022/10/02 01:25:28;;;;;;;1.20;0.83;;;12.90;99.90;;;;;;5035764;28;20218;-80
2022/10/02 01:27:53;;;;;;;0.57;0.57;;;12.80;99.90;;;;;;5029862;28;20208;-79
2022/10/02 01:30:20;;;;;;;0.77;0.20;;;12.70;99.90;;;;;;5031650;28;20189;-79
2022/10/02 01:32:53;;;;;;;0.20;0.20;;;12.60;99.90;;;;;;5033801;28;20239;-79
2022/10/02 01:35:23;;;;;;;0.13;0.13;;;12.40;99.90;;;;;;5034067;28;20177;-79
2022/10/02 01:37:51;;;;;;;0.10;0.10;;;12.30;99.90;;;;;;5035124;28;20217;-79
2022/10/02 01:40:31;;;;;;;0.87;0.87;;;12.30;99.90;;;;;;5037454;28;20255;-79
2022/10/02 01:43:00;;;;;;;0.30;0.30;;;12.40;99.90;;;;;;5038406;28;20190;-79
2022/10/02 01:45:34;;;;;;;0.90;0.50;;;12.50;99.90;;;;;;5039596;28;20223;-79
2022/10/02 01:48:10;;;;;;;0.10;0.10;;;12.60;99.90;;;;;;5031870;28;20210;-80
2022/10/02 01:51:11;;;;;;;0.10;0.10;;;12.70;99.90;;;;;;5032193;28;20201;-79
2022/10/02 01:53:52;;;;;;;0.30;0.30;;;12.80;99.90;;;;;;5034957;28;20511;-79
2022/10/02 01:56:54;;;;;;;0.10;0.10;;;12.90;99.90;;;;;;5027819;28;20197;-80
2022/10/02 01:59:51;;;;;;;3.13;0.50;;;12.90;99.90;;;;;;5034684;28;20177;-79
2022/10/02 02:02:46;;;;;;;0.43;0.40;;;13.00;99.90;;;;;;5005340;28;20193;-79
2022/10/02 02:05:18;;;;;;;0.20;0.20;;;13.00;99.90;;;;;;5028255;28;20224;-79
2022/10/02 02:08:02;;;;;;;0.10;0.10;;;13.00;99.90;;;;;;5035308;28;20277;-79
2022/10/02 02:10:47;;;;;;;0.97;0.97;;;13.10;99.90;;;;;;5035140;28;20173;-80
2022/10/02 02:13:44;;;;;;;0.53;0.53;;;13.10;99.90;;;;;;5031208;28;20182;-79
2022/10/02 02:16:19;;;;;;;0.33;0.33;;;13.20;99.90;;;;;;5016802;28;20190;-79
2022/10/02 02:19:03;;;;;;;0.17;0.17;;;13.20;99.90;;;;;;5035806;28;20697;-79
2022/10/02 02:21:40;;;;;;;0.20;0.20;;;13.20;99.90;;;;;;5036625;28;20216;-79
2022/10/02 02:24:13;;;;;;;0.10;0.10;;;13.20;99.90;;;;;;5036518;28;20193;-80
2022/10/02 02:26:42;;;;;;;1.07;0.67;;;13.30;99.90;;;;;;5030324;28;20232;-79
2022/10/02 02:29:10;;;;;;;0.10;0.10;;;13.30;99.90;;;;;;5029170;28;20651;-80
2022/10/02 02:31:46;;;;;;;0.60;0.60;;;13.30;99.90;;;;;;5036210;28;20182;-79
2022/10/02 02:34:17;;;;;;;5.43;0.30;;;13.30;99.90;;;;;;5034098;28;20316;-78
2022/10/02 02:36:45;;;;;;;0.30;0.30;;;13.30;99.90;;;;;;5035095;28;20205;-78
2022/10/02 02:39:18;;;;;;;0.10;0.10;;;13.30;99.90;;;;;;5032244;28;20185;-78
2022/10/02 02:41:50;;;;;;;0.13;0.13;;;13.40;99.90;;;;;;5037502;28;20200;-78
2022/10/02 02:44:30;;;;;;;0.10;0.10;;;13.40;99.90;;;;;;5040965;28;20178;-78
2022/10/02 02:47:21;;;;;;;0.20;0.20;;;13.40;99.90;;;;;;5051660;28;20205;-78
2022/10/02 02:50:13;;;;;;;1.03;0.93;;;13.40;99.90;;;;;;5036275;28;20256;-78
2022/10/02 02:53:00;;;;;;;0.10;0.10;;;13.40;99.90;;;;;;5039051;28;20275;-79
2022/10/02 02:55:39;;;;;;;0.20;0.20;;;13.40;99.90;;;;;;5040891;28;20219;-78
2022/10/02 02:58:19;;;;;;;0.10;0.10;;;13.40;99.90;;;;;;5041029;28;20241;-79
2022/10/02 03:00:45;;;;;;;0.10;0.10;;;13.40;99.90;;;;;;5039575;28;20721;-78
2022/10/02 03:03:10;;;;;;;0.13;0.13;;;13.40;99.90;;;;;;5038693;28;20213;-79
2022/10/02 03:05:41;;;;;;;0.10;0.10;;;13.40;99.90;;;;;;5038214;28;20241;-78
2022/10/02 03:08:23;;;;;;;0.17;0.17;;;13.50;99.90;;;;;;5040035;28;20736;-78
2022/10/02 03:11:02;;;;;;;1.20;0.20;;;13.50;99.90;;;;;;5042150;28;20212;-78
2022/10/02 03:13:32;;;;;;;0.10;0.10;;;13.50;99.90;;;;;;5038612;28;20174;-78
2022/10/02 03:16:07;;;;;;;0.30;0.30;;;13.50;99.90;;;;;;5038247;28;20270;-79
2022/10/02 03:18:48;;;;;;;0.40;0.40;;;13.50;99.90;;;;;;5041774;28;20253;-79
2022/10/02 03:21:26;;;;;;;1.60;0.30;;;13.50;99.90;;;;;;5037996;28;20213;-79
2022/10/02 03:24:00;;;;;;;0.40;0.40;;;13.50;99.90;;;;;;5035439;28;20187;-78
2022/10/02 03:26:36;;;;;;;0.30;0.30;;;13.50;99.90;;;;;;5042407;28;20205;-78
2022/10/02 03:29:07;;;;;;;0.33;0.33;;;13.50;99.90;;;;;;5042248;28;20182;-79
2022/10/02 03:31:33;;;;;;;0.10;0.10;;;13.60;99.90;;;;;;5040221;28;20190;-79
2022/10/02 03:34:01;;;;;;;0.47;0.40;;;13.50;99.90;;;;;;5036808;28;20190;-78
2022/10/02 03:36:27;;;;;;;0.10;0.10;;;13.60;99.90;;;;;;5038488;28;20213;-78
2022/10/02 03:38:55;;;;;;;0.20;0.20;;;13.60;99.90;;;;;;5037456;28;20194;-78
2022/10/02 03:41:21;;;;;;;0.20;0.20;;;13.60;99.90;;;;;;5037918;28;20197;-78
2022/10/02 03:43:46;;;;;;;0.20;0.20;;;13.70;99.90;;;;;;5038977;28;20190;-78
2022/10/02 03:46:12;;;;;;;0.20;0.20;;;13.70;99.90;;;;;;5039427;28;20639;-78
2022/10/02 03:48:37;;;;;;;5.10;0.20;;;13.70;99.90;;;;;;5036882;28;20176;-78
2022/10/02 03:51:03;;;;;;;0.10;0.10;;;13.70;99.90;;;;;;5037994;28;20309;-78
2022/10/02 03:53:33;;;;;;;0.10;0.10;;;13.70;99.90;;;;;;5037631;28;20191;-79
2022/10/02 03:56:07;;;;;;;0.17;0.17;;;13.70;99.90;;;;;;5039286;28;20750;-79
2022/10/02 03:58:36;;;;;;;3.10;0.77;;;13.70;99.90;;;;;;5039512;28;20644;-79
2022/10/02 04:01:04;;;;;;;0.10;0.10;;;13.70;99.90;;;;;;5039801;28;20658;-78
2022/10/02 04:03:37;;;;;;;3.20;0.20;;;13.70;99.90;;;;;;5042078;28;20197;-79
2022/10/02 04:06:10;;;;;;;1.70;0.57;;;13.70;99.90;;;;;;5038624;28;20293;-78
2022/10/02 04:08:48;;;;;;;0.10;0.10;;;13.70;99.90;;;;;;5038651;28;20527;-79
2022/10/02 04:11:24;;;;;;;3.33;0.93;;;13.70;99.90;;;;;;5037305;28;20221;-78
2022/10/02 04:13:58;;;;;;;0.10;0.10;;;13.70;99.90;;;;;;5041057;28;20232;-79
2022/10/02 04:16:34;;;;;;;0.23;0.23;;;13.70;99.90;;;;;;5040358;28;20716;-79
2022/10/02 04:19:21;;;;;;;0.10;0.10;;;13.70;99.90;;;;;;5037624;28;20188;-78
2022/10/02 04:22:01;;;;;;;0.57;0.43;;;13.70;99.90;;;;;;5039141;28;20177;-79
2022/10/02 04:24:38;;;;;;;0.10;0.10;;;13.70;99.90;;;;;;5037791;28;20233;-78
2022/10/02 04:27:13;;;;;;;0.67;0.67;;;13.70;99.90;;;;;;5036730;28;20297;-78
2022/10/02 04:29:55;;;;;;;0.40;0.30;;;13.70;99.90;;;;;;5038607;28;20177;-77
2022/10/02 04:32:33;;;;;;;0.10;0.10;;;13.70;99.90;;;;;;5039687;28;20186;-78
2022/10/02 04:35:01;;;;;;;2.23;0.30;;;13.70;99.90;;;;;;5039017;28;20186;-79
2022/10/02 04:37:40;;;;;;;0.17;0.17;;;13.60;99.90;;;;;;5038007;28;20221;-79
2022/10/02 04:40:33;;;;;;;1.53;0.60;;;13.70;99.90;;;;;;5038467;28;20201;-78
2022/10/02 04:43:25;;;;;;;0.33;0.33;;;13.60;99.90;;;;;;5039962;28;20212;-79
2022/10/02 04:46:18;;;;;;;0.50;0.50;;;13.70;99.90;;;;;;5038696;28;20752;-79
2022/10/02 04:49:05;;;;;;;0.10;0.10;;;13.70;99.90;;;;;;5042221;28;20186;-80
2022/10/02 04:51:40;;;;;;;0.10;0.10;;;13.70;99.90;;;;;;5038219;28;20225;-79
2022/10/02 04:54:27;;;;;;;0.30;0.30;;;13.70;99.90;;;;;;5035135;28;20182;-79
2022/10/02 04:57:17;;;;;;;1.27;0.47;;;13.70;99.90;;;;;;5037463;28;20256;-80
2022/10/02 04:59:55;;;;;;;0.10;0.10;;;13.70;99.90;;;;;;5034384;28;20187;-79
2022/10/02 05:02:26;;;;;;;0.10;0.10;;;13.70;99.90;;;;;;5034945;28;20190;-79
2022/10/02 05:04:57;;;;;;;0.97;0.50;;;13.70;99.90;;;;;;5033109;28;20569;-79
2022/10/02 05:07:53;;;;;;;0.37;0.37;;;13.70;99.90;;;;;;5033629;28;20239;-80
2022/10/02 05:11:08;;;;;;;0.30;0.30;;;13.70;99.90;;;;;;5034378;28;20281;-80
2022/10/02 05:13:54;;;;;;;0.10;0.10;;;13.70;99.90;;;;;;5027465;28;20190;-79
2022/10/02 05:16:45;;;;;;;0.40;0.40;;;13.80;99.90;;;;;;5036664;28;20186;-79
2022/10/02 05:19:39;;;;;;;0.53;0.40;;;13.80;99.90;;;;;;5034078;28;20190;-79
2022/10/02 05:22:33;;;;;;;0.10;0.10;;;13.80;99.90;;;;;;5027073;28;20686;-79
2022/10/02 05:25:37;;;;;;;0.67;0.40;;;13.80;99.90;;;;;;5035210;28;20202;-79
2022/10/02 05:28:09;;;;;;;0.10;0.10;;;13.80;99.90;;;;;;5034450;28;20263;-79
2022/10/02 05:30:51;;;;;;;0.17;0.13;;;13.80;99.90;;;;;;5035774;28;20811;-79
2022/10/02 05:33:31;;;;;;;0.10;0.10;;;13.80;99.90;;;;;;5034158;28;20192;-79
2022/10/02 05:36:25;;;;;;;0.67;0.67;;;13.90;99.90;;;;;;5034776;28;20656;-79
2022/10/02 05:38:56;;;;;;;2.13;0.30;;;13.80;99.90;;;;;;5031786;28;20214;-79
2022/10/02 05:41:44;;;;;;;0.10;0.10;;;13.80;99.90;;;;;;5036649;28;20181;-79
2022/10/02 05:44:21;;;;;;;0.20;0.20;;;13.80;99.90;;;;;;5031766;28;20190;-79
2022/10/02 05:47:06;;;;;;;0.23;0.23;;;13.80;99.90;;;;;;5035560;28;20248;-79
2022/10/02 05:49:49;;;;;;;0.93;0.77;;;13.80;99.90;;;;;;5034296;28;20189;-79
2022/10/02 05:52:19;;;;;;;1.83;0.43;;;13.80;99.90;;;;;;5031609;28;20198;-79
2022/10/02 05:55:05;;;;;;;0.53;0.23;;;13.80;99.90;;;;;;5033390;28;20216;-79
2022/10/02 05:57:46;;;;;;;0.27;0.27;;;13.80;99.90;;;;;;5024824;28;20214;-79
2022/10/02 06:00:30;;;;;;;0.97;0.93;;;13.70;99.90;;;;;;5032664;28;20213;-79
2022/10/02 06:03:15;;;;;;;1.07;0.30;;;13.80;99.90;;;;;;5035563;28;20205;-80
2022/10/02 06:06:05;;;;;;;0.10;0.10;;;13.80;99.90;;;;;;5035799;28;20230;-79
2022/10/02 06:08:40;;;;;;;0.10;0.10;;;13.80;99.90;;;;;;5036707;28;20182;-79
2022/10/02 06:11:27;;;;;;;0.60;0.60;;;13.80;99.90;;;;;;5037495;28;20563;-79
2022/10/02 06:13:59;;;;;;;0.30;0.30;;;13.80;99.90;;;;;;5036090;28;20186;-79
2022/10/02 06:16:34;;;;;;;0.50;0.50;;;13.80;99.90;;;;;;5034955;28;20194;-79
2022/10/02 06:19:13;;;;;;;0.20;0.20;;;13.80;99.90;;;;;;5035058;28;20267;-79
2022/10/02 06:22:17;;;;;;;0.40;0.40;;;13.80;99.90;;;;;;5035843;28;20281;-80
2022/10/02 06:25:03;;;;;;;1.07;1.03;;;13.90;99.90;;;;;;5018864;28;20213;-79
2022/10/02 06:27:42;;;;;;;1.80;0.43;;;13.90;99.90;;;;;;5033590;28;21013;-81
2022/10/02 06:30:16;;;;;;;0.20;0.20;;;13.90;99.90;;;;;;5033500;28;20184;-81
2022/10/02 06:33:21;;;;;;;0.27;0.20;;;13.90;99.90;;;;;;5036176;28;21203;-81
2022/10/02 06:36:13;;;;;;;1.10;1.10;;;13.90;99.90;;;;;;5033784;28;20183;-81
2022/10/02 06:39:08;;;;;;;2.40;0.77;;;13.90;99.90;;;;;;5037716;28;21216;-82
2022/10/02 06:42:02;;;;;;;0.20;0.20;;;13.90;99.90;;;;;;5040472;28;20190;-82
2022/10/02 06:45:02;;;;;;;0.20;0.20;;;13.90;99.90;;;;;;5039924;28;20233;-82
2022/10/02 06:47:59;;;;;;;0.50;0.50;;;13.90;99.90;;;;;;5037433;28;20874;-81
2022/10/02 06:50:40;;;;;;;0.20;0.20;;;13.90;99.90;;;;;;5046614;28;20198;-81
2022/10/02 06:53:24;;;;;;;0.60;0.60;;;13.80;99.90;;;;;;5032610;28;20185;-80
2022/10/02 06:56:00;;;;;;;2.00;0.40;;;13.90;99.90;;;;;;5032600;28;20184;-82
2022/10/02 06:59:14;;;;;;;0.37;0.37;;;13.80;99.90;;;;;;5029919;28;20206;-80
2022/10/02 07:01:55;;;;;;;0.20;0.20;;;13.80;99.90;;;;;;5029116;28;20189;-81
2022/10/02 07:04:24;;;;;;;0.30;0.30;;;13.80;99.90;;;;;;5024444;28;20248;-81
2022/10/02 07:07:01;;;;;;;0.20;0.20;;;13.80;99.90;;;;;;5030638;28;20547;-81
2022/10/02 07:09:45;;;;;;;0.20;0.20;;;13.80;99.90;;;;;;5023409;28;20197;-81
2022/10/02 07:12:49;;;;;;;0.10;0.10;;;13.80;99.90;;;;;;5025935;28;20564;-81
2022/10/02 07:15:34;;;;;;;1.23;0.60;;;13.90;99.90;;;;;;5030976;28;20225;-81
2022/10/02 07:18:41;;;;;;;0.87;0.87;;;13.90;99.90;;;;;;5030233;28;20236;-80
2022/10/02 07:21:16;;;;;;;2.93;0.67;;;13.90;99.90;;;;;;5027771;28;20711;-80
2022/10/02 07:24:12;;;;;;;0.73;0.37;;;14.00;99.90;;;;;;5029474;28;20186;-79
2022/10/02 07:26:57;;;;;;;0.40;0.40;;;13.90;99.90;;;;;;5031311;28;20684;-80
2022/10/02 07:29:42;;;;;;;0.10;0.10;;;13.90;99.90;;;;;;5025984;28;20179;-79
2022/10/02 07:32:24;;;;;;;0.20;0.20;;;13.90;99.90;;;;;;5034025;28;20170;-79
2022/10/02 07:35:36;;;;;;;0.17;0.17;;;14.00;99.90;;;;;;5031365;28;20202;-81
2022/10/02 07:38:16;;;;;;;0.37;0.37;;;14.00;99.90;;;;;;5025620;28;20266;-81
2022/10/02 07:41:04;;;;;;;0.77;0.53;;;14.00;99.90;;;;;;5033254;28;20191;-81
2022/10/02 07:43:54;;;;;;;0.07;0.07;;;14.00;99.90;;;;;;5027773;28;20197;-79
2022/10/02 07:46:38;;;;;;;0.00;0.00;;;14.10;99.90;;;;;;5034393;28;20652;-79
2022/10/02 07:49:35;;;;;;;0.10;0.10;;;14.10;99.90;;;;;;5034635;28;20228;-79
2022/10/02 07:52:24;;;;;;;2.90;0.67;;;14.10;99.90;;;;;;5034928;28;20198;-79
2022/10/02 07:55:03;;;;;;;0.10;0.10;;;14.10;99.90;;;;;;5035318;28;20173;-79
2022/10/02 07:57:47;;;;;;;1.30;0.40;;;14.10;99.90;;;;;;5034908;28;20205;-79
2022/10/02 08:00:15;;;;;;;0.10;0.10;;;14.10;99.90;;;;;;5035126;28;20167;-79
2022/10/02 08:03:06;;;;;;;0.20;0.20;;;14.10;99.90;;;;;;5034786;28;20196;-79
2022/10/02 08:05:40;;;;;;;1.13;1.13;;;14.20;99.90;;;;;;5034958;28;20257;-80
2022/10/02 08:08:10;;;;;;;0.20;0.20;;;14.10;99.90;;;;;;5036139;28;20226;-79
2022/10/02 08:10:40;;;;;;;0.20;0.20;;;14.10;99.90;;;;;;5036502;28;20629;-79
2022/10/02 08:13:21;;;;;;;0.10;0.10;;;14.20;99.90;;;;;;5036802;28;20202;-79
2022/10/02 08:15:52;;;;;;;0.10;0.10;;;14.30;99.90;;;;;;5035448;28;20170;-79
2022/10/02 08:18:34;;;;;;;0.10;0.10;;;14.30;99.90;;;;;;5034687;28;20207;-79
2022/10/02 08:21:01;;;;;;;0.30;0.30;;;14.30;99.90;;;;;;5034781;28;20178;-79
2022/10/02 08:23:47;;;;;;;0.10;0.10;;;14.30;99.90;;;;;;5034923;28;20571;-79
2022/10/02 08:26:12;;;;;;;0.10;0.10;;;14.40;99.90;;;;;;5034170;28;20194;-80
2022/10/02 08:29:15;;;;;;;0.13;0.13;;;14.50;99.90;;;;;;5034434;28;20651;-79
2022/10/02 08:31:41;;;;;;;0.10;0.10;;;14.60;99.90;;;;;;5040529;28;20667;-79
2022/10/02 08:34:17;;;;;;;0.53;0.20;;;14.60;99.90;;;;;;5034943;28;20213;-79
2022/10/02 08:37:03;;;;;;;0.20;0.10;;;14.60;99.90;;;;;;5034576;28;20194;-79
2022/10/02 08:40:09;;;;;;;0.27;0.27;;;14.60;99.90;;;;;;5033424;28;20559;-79
2022/10/02 08:43:09;;;;;;;0.30;0.30;;;14.60;99.90;;;;;;5034459;28;20232;-79
2022/10/02 08:46:02;;;;;;;0.10;0.10;;;14.60;99.90;;;;;;5034286;28;20568;-79
2022/10/02 08:48:48;;;;;;;0.30;0.30;;;14.50;99.90;;;;;;5034028;28;20194;-79
2022/10/02 08:51:38;;;;;;;0.20;0.20;;;14.50;99.90;;;;;;5034376;28;20204;-80
2022/10/02 08:54:31;;;;;;;0.43;0.43;;;14.50;99.90;;;;;;5033986;28;20179;-79
2022/10/02 08:57:06;;;;;;;0.20;0.20;;;14.50;99.90;;;;;;5034920;28;20194;-79
2022/10/02 09:00:01;;;;;;;0.30;0.30;;;14.50;99.90;;;;;;5033869;28;20667;-79
2022/10/02 09:02:59;;;;;;;0.20;0.20;;;14.50;99.90;;;;;;5036025;28;20167;-79
2022/10/02 09:06:03;;;;;;;0.30;0.30;;;14.60;99.90;;;;;;5034324;28;20210;-79
2022/10/02 09:09:10;;;;;;;0.10;0.10;;;14.60;99.90;;;;;;5035093;28;20681;-80
2022/10/02 09:12:11;;;;;;;0.10;0.10;;;14.70;99.90;;;;;;5034392;28;20256;-79
2022/10/02 09:14:59;;;;;;;0.23;0.23;;;14.90;99.90;;;;;;5035837;28;20196;-80
2022/10/02 09:17:29;;;;;;;0.17;0.17;;;15.00;99.90;;;;;;5034096;28;20515;-79
2022/10/02 09:20:22;;;;;;;0.10;0.10;;;14.90;99.90;;;;;;5033801;28;20196;-79
2022/10/02 09:23:01;;;;;;;0.43;0.30;;;15.00;99.90;;;;;;5033323;28;20218;-79
2022/10/02 09:25:55;;;;;;;0.10;0.10;;;15.10;99.90;;;;;;5033264;28;20249;-79
2022/10/02 09:28:50;;;;;;;0.10;0.10;;;15.10;99.90;;;;;;5035007;28;20196;-80
2022/10/02 09:31:53;;;;;;;2.63;0.33;;;15.00;99.90;;;;;;5034106;28;20197;-79
2022/10/02 09:34:51;;;;;;;0.10;0.10;;;15.00;99.90;;;;;;5033390;28;20186;-79
2022/10/02 09:37:50;;;;;;;0.50;0.30;;;14.90;99.90;;;;;;5032600;28;20203;-79
2022/10/02 09:40:35;;;;;;;0.20;0.20;;;14.90;99.90;;;;;;5033721;28;20592;-79
2022/10/02 09:43:50;;;;;;;0.20;0.20;;;14.90;99.90;;;;;;5032959;28;20872;-79
2022/10/02 09:46:34;;;;;;;0.50;0.50;;;14.80;99.90;;;;;;5033523;28;20227;-79
2022/10/02 09:49:24;;;;;;;0.30;0.27;;;14.80;99.90;;;;;;5032434;28;20168;-79
2022/10/02 09:52:28;;;;;;;0.13;0.13;;;14.90;99.90;;;;;;5032923;28;20196;-79
2022/10/02 09:54:57;;;;;;;0.20;0.20;;;14.90;99.90;;;;;;5033217;28;20612;-79
2022/10/02 09:57:51;;;;;;;0.20;0.20;;;14.80;99.90;;;;;;5033137;28;20202;-79
2022/10/02 10:00:24;;;;;;;0.10;0.10;;;14.80;99.90;;;;;;5033327;28;20166;-80
2022/10/02 10:02:55;;;;;;;0.50;0.20;;;14.80;99.90;;;;;;5033450;28;20201;-80
2022/10/02 10:05:49;;;;;;;0.10;0.10;;;14.90;99.90;;;;;;5034762;28;20199;-79
2022/10/02 10:08:44;;;;;;;0.27;0.13;;;14.90;99.90;;;;;;5033741;28;20194;-79
2022/10/02 10:11:10;;;;;;;0.20;0.20;;;15.00;99.90;;;;;;5049897;28;20198;-79
2022/10/02 10:14:11;;;;;;;0.10;0.10;;;15.00;99.90;;;;;;5033327;28;20590;-79
2022/10/02 10:16:51;;;;;;;0.20;0.20;;;15.00;99.90;;;;;;5033672;28;20212;-79
2022/10/02 10:19:45;;;;;;;0.30;0.30;;;15.10;99.90;;;;;;5034316;28;20172;-79
2022/10/02 10:22:19;;;;;;;0.20;0.20;;;15.20;99.90;;;;;;5034456;28;20222;-79
2022/10/02 10:25:13;;;;;;;0.10;0.10;;;15.40;99.90;;;;;;5034722;28;20206;-79
2022/10/02 10:27:38;;;;;;;0.10;0.10;;;15.40;99.90;;;;;;5032269;28;20200;-79
2022/10/02 10:30:49;;;;;;;0.20;0.20;;;15.40;99.90;;;;;;5032848;28;20178;-80
2022/10/02 10:33:31;;;;;;;0.97;0.40;;;15.40;99.90;;;;;;5034174;28;20157;-79
2022/10/02 10:39:16;;;;;;;0.10;0.10;;;15.10;99.90;;;;;;5033997;28;20186;-80
2022/10/02 10:42:15;;;;;;;0.20;0.20;;;15.10;99.90;;;;;;5032539;28;20189;-79
2022/10/02 10:45:24;;;;;;;0.43;0.30;;;15.10;99.90;;;;;;5033593;28;20189;-79
2022/10/02 10:48:33;;;;;;;0.20;0.20;;;15.20;99.90;;;;;;5032986;28;20186;-79
2022/10/02 10:51:31;;;;;;;0.40;0.40;;;15.10;99.90;;;;;;5031267;28;20200;-79
2022/10/02 10:54:13;;;;;;;0.10;0.10;;;15.20;99.90;;;;;;5032089;28;20231;-80
2022/10/02 10:56:52;;;;;;;0.37;0.37;;;15.30;99.90;;;;;;5032013;28;20201;-80
2022/10/02 11:00:00;;;;;;;0.20;0.20;;;15.30;99.90;;;;;;5032361;28;20696;-79
2022/10/02 11:02:42;;;;;;;0.40;0.20;;;15.40;99.90;;;;;;5035147;28;20642;-79
2022/10/02 11:05:29;;;;;;;0.17;0.17;;;15.30;99.90;;;;;;5037786;28;20207;-79
2022/10/02 11:08:22;;;;;;;1.47;0.20;;;15.30;99.90;;;;;;5038131;28;20196;-80
2022/10/02 11:11:15;;;;;;;0.20;0.20;;;15.30;99.90;;;;;;5036627;28;20173;-80
2022/10/02 11:13:50;;;;;;;0.20;0.20;;;15.40;99.90;;;;;;5036491;28;20178;-79
2022/10/02 11:16:37;;;;;;;0.20;0.20;;;15.40;99.90;;;;;;5036350;28;20194;-80
2022/10/02 11:19:27;;;;;;;0.20;0.20;;;15.50;99.90;;;;;;5036357;28;20184;-80
2022/10/02 11:22:24;;;;;;;0.20;0.20;;;15.50;99.90;;;;;;5037811;28;20177;-80
2022/10/02 11:25:09;;;;;;;0.27;0.20;;;15.50;99.90;;;;;;5037137;28;20237;-80
2022/10/02 11:27:56;;;;;;;0.10;0.10;;;15.50;99.90;;;;;;5036040;28;20201;-80
2022/10/02 11:30:31;;;;;;;0.20;0.20;;;15.40;99.90;;;;;;5038377;28;20174;-80
2022/10/02 11:33:06;;;;;;;0.17;0.17;;;15.40;99.90;;;;;;5041406;28;20179;-79
2022/10/02 11:35:51;;;;;;;0.10;0.10;;;15.20;99.90;;;;;;5041033;28;20178;-79
2022/10/02 11:38:41;;;;;;;0.10;0.10;;;15.30;99.90;;;;;;5039832;28;20632;-79
2022/10/02 11:41:33;;;;;;;0.20;0.20;;;15.20;99.90;;;;;;5018567;28;20173;-79
2022/10/02 11:44:17;;;;;;;0.87;0.53;;;15.30;99.90;;;;;;5019407;28;20603;-80
2022/10/02 11:47:14;;;;;;;2.40;0.43;;;15.30;99.90;;;;;;5019996;28;20208;-79
2022/10/02 11:50:05;;;;;;;0.50;0.50;;;15.40;99.90;;;;;;5018905;28;20561;-79
2022/10/02 11:53:07;;;;;;;0.10;0.10;;;15.30;99.90;;;;;;5018813;28;20680;-79
2022/10/02 11:55:45;;;;;;;0.20;0.20;;;15.30;99.90;;;;;;5020822;28;20178;-79
2022/10/02 11:58:43;;;;;;;0.10;0.10;;;15.50;99.90;;;;;;5019833;28;20200;-80
2022/10/02 12:01:33;;;;;;;0.10;0.10;;;15.70;99.90;;;;;;5019560;28;20181;-80
2022/10/02 12:04:29;;;;;;;0.40;0.20;;;15.70;99.90;;;;;;5018495;28;20177;-80
2022/10/02 12:07:14;;;;;;;0.30;0.20;;;15.80;99.90;;;;;;5018964;28;20223;-79
2022/10/02 12:10:26;;;;;;;0.10;0.10;;;15.80;99.90;;;;;;5020454;28;20169;-79
2022/10/02 12:12:57;;;;;;;0.10;0.10;;;15.80;99.90;;;;;;5011718;28;20280;-79
2022/10/02 12:15:42;;;;;;;0.20;0.20;;;15.90;99.90;;;;;;5018985;28;20171;-79
2022/10/02 12:18:30;;;;;;;0.13;0.13;;;15.90;99.90;;;;;;5017881;28;20228;-79
2022/10/02 12:27:51;;;;;;;0.10;0.10;;;15.70;99.90;;;;;;5039436;28;20215;-79
2022/10/02 12:30:27;;;;;;;0.43;0.30;;;15.90;99.90;;;;;;5036866;28;20174;-79
2022/10/02 12:33:11;;;;;;;0.20;0.20;;;15.80;99.90;;;;;;5038315;28;20181;-79
2022/10/02 12:35:58;;;;;;;0.20;0.20;;;15.90;99.90;;;;;;5038085;28;20250;-79
2022/10/02 12:38:39;;;;;;;0.47;0.20;;;16.00;99.90;;;;;;5038187;28;20239;-80
2022/10/02 12:41:32;;;;;;;0.43;0.43;;;15.90;99.90;;;;;;5038102;28;20523;-79
2022/10/02 12:44:33;;;;;;;0.30;0.30;;;15.70;99.90;;;;;;5037835;28;20257;-80
2022/10/02 12:47:27;;;;;;;0.10;0.10;;;15.60;99.90;;;;;;5038798;28;20602;-79
2022/10/02 12:50:28;;;;;;;0.10;0.10;;;15.60;99.90;;;;;;5039840;28;20227;-80
2022/10/02 12:53:35;;;;;;;0.17;0.17;;;15.70;99.90;;;;;;5038999;28;20179;-80
2022/10/02 12:56:41;;;;;;;0.30;0.30;;;15.70;99.90;;;;;;5037718;28;20171;-80
2022/10/02 12:59:24;;;;;;;0.30;0.30;;;15.70;99.90;;;;;;5037809;28;20180;-80
2022/10/02 13:02:28;;;;;;;0.37;0.30;;;15.60;99.90;;;;;;5039135;28;20173;-80
2022/10/02 13:05:02;;;;;;;0.20;0.20;;;15.60;99.90;;;;;;5032434;28;20295;-79
2022/10/02 13:07:43;;;;;;;0.83;0.40;;;15.60;99.90;;;;;;5032741;28;20193;-78
2022/10/02 13:10:20;;;;;;;0.40;0.40;;;15.50;99.90;;;;;;5032316;28;20203;-78
2022/10/02 13:13:16;;;;;;;0.83;0.60;;;15.50;99.90;;;;;;5032379;28;20164;-78
2022/10/02 13:15:49;;;;;;;0.87;0.40;;;15.50;99.90;;;;;;5032322;28;20167;-78
2022/10/02 13:18:32;;;;;;;1.27;1.00;;;15.30;99.90;;;;;;5031734;28;20207;-78
2022/10/02 13:21:21;;;;;;;0.50;0.50;;;15.30;99.90;;;;;;5031909;28;20201;-78
2022/10/02 13:24:13;;;;;;;0.97;0.53;;;15.30;99.90;;;;;;5032044;28;20168;-78
2022/10/02 13:26:55;;;;;;;0.20;0.20;;;15.40;99.90;;;;;;5032716;28;20740;-79
2022/10/02 13:29:36;;;;;;;0.10;0.10;;;15.40;99.90;;;;;;5032485;28;20194;-78
2022/10/02 13:32:24;;;;;;;0.77;0.30;;;15.50;99.90;;;;;;5032879;28;20653;-78
2022/10/02 13:35:27;;;;;;;0.27;0.27;;;15.50;99.90;;;;;;5034547;28;20705;-78
2022/10/02 13:38:18;;;;;;;0.30;0.30;;;15.50;99.90;;;;;;5033729;28;20202;-78
2022/10/02 13:40:57;;;;;;;0.20;0.13;;;15.50;99.90;;;;;;5033084;28;20208;-78
2022/10/02 13:43:39;;;;;;;0.30;0.30;;;15.60;99.90;;;;;;5032600;28;20178;-78
2022/10/02 13:46:34;;;;;;;0.10;0.10;;;15.70;99.90;;;;;;5032137;28;20196;-78
2022/10/02 13:49:27;;;;;;;0.43;0.33;;;15.60;99.90;;;;;;5031336;28;20173;-78
2022/10/02 13:52:16;;;;;;;0.10;0.10;;;15.60;99.90;;;;;;5031520;28;20196;-79
2022/10/02 13:54:50;;;;;;;0.10;0.10;;;15.50;99.90;;;;;;5030933;28;20182;-78
2022/10/02 13:57:54;;;;;;;0.33;0.20;;;15.60;99.90;;;;;;5033437;28;20765;-78
2022/10/02 14:00:45;;;;;;;0.10;0.10;;;15.70;99.90;;;;;;5032299;28;20277;-78
2022/10/02 14:03:15;;;;;;;0.10;0.10;;;15.70;99.90;;;;;;5032562;28;20206;-78
2022/10/02 14:06:13;;;;;;;0.10;0.10;;;15.80;99.90;;;;;;5031967;28;20218;-78
2022/10/02 14:09:15;;;;;;;0.20;0.20;;;15.80;99.90;;;;;;5031504;28;20641;-78
2022/10/02 14:12:00;;;;;;;0.10;0.10;;;15.80;99.90;;;;;;5030954;28;20220;-78
2022/10/02 14:14:57;;;;;;;0.10;0.10;;;15.70;99.90;;;;;;5030944;28;20545;-78
2022/10/02 14:17:45;;;;;;;0.13;0.13;;;15.70;99.90;;;;;;5031055;28;20196;-78
2022/10/02 14:20:19;;;;;;;0.10;0.10;;;15.70;99.90;;;;;;5030810;28;20543;-78
2022/10/02 14:23:07;;;;;;;0.20;0.20;;;15.70;99.90;;;;;;5030983;28;20173;-78
2022/10/02 14:25:59;;;;;;;0.10;0.10;;;15.70;99.90;;;;;;5031727;28;20199;-78